sensor_id;sensor_type;location;lat;lon;timestamp;pressure;altitude;pressure_sealevel;temperature;humidity
68179;BME280;54998;42.656;23.382;2023-03-14T00:01:57;95097.72;;;1.94;46.61
68179;BME280;54998;42.656;23.382;2023-03-14T00:04:23;95083.44;;;1.93;46.84
68179;BME280;54998;42.656;23.382;2023-03-14T00:06:48;95078.13;;;1.98;46.51
68179;BME280;54998;42.656;23.382;2023-03-14T00:09:15;95075.69;;;1.96;46.56
68179;BME280;54998;42.656;23.382;2023-03-14T00:11:40;95076.22;;;2.01;46.13
68179;BME280;54998;42.656;23.382;2023-03-14T00:14:06;95067.09;;;1.99;46.43
68179;BME280;54998;42.656;23.382;2023-03-14T00:16:31;95064.50;;;1.84;46.81
68179;BME280;54998;42.656;23.382;2023-03-14T00:18:58;95069.31;;;1.73;47.47
68179;BME280;54998;42.656;23.382;2023-03-14T00:21:24;95064.91;;;1.61;48.04
68179;BME280;54998;42.656;23.382;2023-03-14T00:23:49;95054.13;;;1.57;48.28
68179;BME280;54998;42.656;23.382;2023-03-14T00:26:16;95041.97;;;1.48;48.55
68179;BME280;54998;42.656;23.382;2023-03-14T00:28:43;95027.59;;;1.49;48.24
68179;BME280;54998;42.656;23.382;2023-03-14T00:31:11;95045.31;;;1.49;48.19
68179;BME280;54998;42.656;23.382;2023-03-14T00:33:37;95035.81;;;1.36;48.79
68179;BME280;54998;42.656;23.382;2023-03-14T00:36:05;95035.44;;;1.28;49.09
68179;BME280;54998;42.656;23.382;2023-03-14T00:38:32;95030.25;;;1.30;49.11
68179;BME280;54998;42.656;23.382;2023-03-14T00:40:58;95018.19;;;1.19;49.35
68179;BME280;54998;42.656;23.382;2023-03-14T00:43:23;95025.03;;;1.17;50.11
68179;BME280;54998;42.656;23.382;2023-03-14T00:45:50;95027.97;;;1.09;50.52
68179;BME280;54998;42.656;23.382;2023-03-14T00:48:16;95018.00;;;1.06;50.80
68179;BME280;54998;42.656;23.382;2023-03-14T00:50:42;95014.41;;;1.10;50.84
68179;BME280;54998;42.656;23.382;2023-03-14T00:53:08;95018.59;;;1.11;50.89
68179;BME280;54998;42.656;23.382;2023-03-14T00:55:37;95010.19;;;1.11;50.88
68179;BME280;54998;42.656;23.382;2023-03-14T00:58:02;95016.56;;;1.18;50.82
68179;BME280;54998;42.656;23.382;2023-03-14T01:00:28;95018.91;;;1.05;51.32
68179;BME280;54998;42.656;23.382;2023-03-14T01:02:53;95015.31;;;0.93;51.75
68179;BME280;54998;42.656;23.382;2023-03-14T01:05:19;95012.72;;;0.77;52.28
68179;BME280;54998;42.656;23.382;2023-03-14T01:07:44;95013.13;;;0.70;52.60
68179;BME280;54998;42.656;23.382;2023-03-14T01:10:10;95010.94;;;0.62;53.23
68179;BME280;54998;42.656;23.382;2023-03-14T01:12:35;95004.41;;;0.75;52.86
68179;BME280;54998;42.656;23.382;2023-03-14T01:15:01;95005.63;;;0.84;52.23
68179;BME280;54998;42.656;23.382;2023-03-14T01:17:26;95006.13;;;0.91;51.95
68179;BME280;54998;42.656;23.382;2023-03-14T01:19:51;95005.63;;;0.84;52.09
68179;BME280;54998;42.656;23.382;2023-03-14T01:22:17;94993.91;;;0.83;52.16
68179;BME280;54998;42.656;23.382;2023-03-14T01:24:42;94992.69;;;0.90;51.62
68179;BME280;54998;42.656;23.382;2023-03-14T01:27:07;94991.66;;;0.94;51.73
68179;BME280;54998;42.656;23.382;2023-03-14T01:29:33;94986.34;;;0.99;50.99
68179;BME280;54998;42.656;23.382;2023-03-14T01:31:58;94986.34;;;0.99;50.80
68179;BME280;54998;42.656;23.382;2023-03-14T01:34:24;94992.38;;;0.96;50.94
68179;BME280;54998;42.656;23.382;2023-03-14T01:36:49;94988.22;;;0.95;51.19
68179;BME280;54998;42.656;23.382;2023-03-14T01:39:14;94985.84;;;0.92;51.31
68179;BME280;54998;42.656;23.382;2023-03-14T01:41:40;94978.94;;;0.96;50.99
68179;BME280;54998;42.656;23.382;2023-03-14T01:44:11;94976.00;;;0.88;51.15
68179;BME280;54998;42.656;23.382;2023-03-14T01:46:43;94971.31;;;0.80;51.31
68179;BME280;54998;42.656;23.382;2023-03-14T01:49:14;94965.16;;;0.86;51.28
68179;BME280;54998;42.656;23.382;2023-03-14T01:52:02;94968.44;;;0.70;52.03
68179;BME280;54998;42.656;23.382;2023-03-14T01:54:36;94960.59;;;0.59;52.57
68179;BME280;54998;42.656;23.382;2023-03-14T01:57:18;94959.66;;;0.44;53.41
68179;BME280;54998;42.656;23.382;2023-03-14T02:02:29;94959.44;;;0.31;54.33
68179;BME280;54998;42.656;23.382;2023-03-14T02:04:56;94956.94;;;0.31;54.92
68179;BME280;54998;42.656;23.382;2023-03-14T02:10:27;94956.13;;;0.13;55.59
68179;BME280;54998;42.656;23.382;2023-03-14T02:12:55;94958.78;;;0.10;55.89
68179;BME280;54998;42.656;23.382;2023-03-14T02:15:22;94953.09;;;0.07;56.03
68179;BME280;54998;42.656;23.382;2023-03-14T02:17:48;94951.50;;;0.04;56.47
68179;BME280;54998;42.656;23.382;2023-03-14T02:21:17;94952.56;;;0.00;57.29
68179;BME280;54998;42.656;23.382;2023-03-14T02:23:08;94946.56;;;0.03;56.47
68179;BME280;54998;42.656;23.382;2023-03-14T02:25:42;94947.94;;;-0.09;56.66
68179;BME280;54998;42.656;23.382;2023-03-14T02:28:11;94944.97;;;-0.17;57.52
68179;BME280;54998;42.656;23.382;2023-03-14T02:30:37;94941.41;;;-0.13;57.70
68179;BME280;54998;42.656;23.382;2023-03-14T02:33:05;94954.63;;;-0.08;58.06
68179;BME280;54998;42.656;23.382;2023-03-14T02:35:52;94948.09;;;0.05;58.34
68179;BME280;54998;42.656;23.382;2023-03-14T02:38:36;94943.19;;;0.02;58.29
68179;BME280;54998;42.656;23.382;2023-03-14T02:41:03;94948.63;;;-0.06;58.90
68179;BME280;54998;42.656;23.382;2023-03-14T02:43:29;94946.91;;;-0.05;58.79
68179;BME280;54998;42.656;23.382;2023-03-14T02:45:54;94959.97;;;-0.14;58.60
68179;BME280;54998;42.656;23.382;2023-03-14T02:48:26;94956.91;;;-0.21;58.94
68179;BME280;54998;42.656;23.382;2023-03-14T02:50:57;94957.44;;;-0.14;59.95
68179;BME280;54998;42.656;23.382;2023-03-14T02:53:33;94956.69;;;-0.16;59.85
68179;BME280;54998;42.656;23.382;2023-03-14T02:55:59;94949.34;;;-0.21;59.82
68179;BME280;54998;42.656;23.382;2023-03-14T02:58:27;94961.00;;;-0.18;59.65
68179;BME280;54998;42.656;23.382;2023-03-14T03:00:53;94959.38;;;-0.19;60.06
68179;BME280;54998;42.656;23.382;2023-03-14T03:03:19;94968.28;;;-0.12;60.04
68179;BME280;54998;42.656;23.382;2023-03-14T03:05:49;94963.88;;;-0.09;59.99
68179;BME280;54998;42.656;23.382;2023-03-14T03:08:15;94962.50;;;-0.14;59.88
68179;BME280;54998;42.656;23.382;2023-03-14T03:10:40;94962.50;;;-0.14;59.99
68179;BME280;54998;42.656;23.382;2023-03-14T03:13:06;94958.41;;;-0.17;60.12
68179;BME280;54998;42.656;23.382;2023-03-14T03:15:31;94957.44;;;-0.14;60.25
68179;BME280;54998;42.656;23.382;2023-03-14T03:17:57;94957.16;;;-0.26;60.45
68179;BME280;54998;42.656;23.382;2023-03-14T03:20:22;94952.31;;;-0.30;60.76
68179;BME280;54998;42.656;23.382;2023-03-14T03:22:47;94954.91;;;-0.32;60.80
68179;BME280;54998;42.656;23.382;2023-03-14T03:25:14;94964.84;;;-0.29;61.07
68179;BME280;54998;42.656;23.382;2023-03-14T03:27:40;94952.44;;;-0.33;61.35
68179;BME280;54998;42.656;23.382;2023-03-14T03:30:06;94955.13;;;-0.36;61.33
68179;BME280;54998;42.656;23.382;2023-03-14T03:32:32;94955.13;;;-0.36;61.67
68179;BME280;54998;42.656;23.382;2023-03-14T03:34:58;94956.38;;;-0.45;61.50
68179;BME280;54998;42.656;23.382;2023-03-14T03:37:23;94956.72;;;-0.53;62.02
68179;BME280;54998;42.656;23.382;2023-03-14T03:39:52;94952.63;;;-0.55;62.03
68179;BME280;54998;42.656;23.382;2023-03-14T03:42:18;94951.13;;;-0.59;62.43
68179;BME280;54998;42.656;23.382;2023-03-14T03:44:44;94953.94;;;-0.66;62.55
68179;BME280;54998;42.656;23.382;2023-03-14T03:47:09;94953.34;;;-0.71;62.96
68179;BME280;54998;42.656;23.382;2023-03-14T03:49:35;94962.66;;;-0.73;62.79
68179;BME280;54998;42.656;23.382;2023-03-14T03:52:00;94967.16;;;-0.79;63.39
68179;BME280;54998;42.656;23.382;2023-03-14T03:54:26;94965.81;;;-0.87;63.53
68179;BME280;54998;42.656;23.382;2023-03-14T03:56:52;94968.06;;;-0.99;64.02
68179;BME280;54998;42.656;23.382;2023-03-14T03:59:17;94983.28;;;-1.02;63.92
68179;BME280;54998;42.656;23.382;2023-03-14T04:01:43;94976.00;;;-1.09;64.44
68179;BME280;54998;42.656;23.382;2023-03-14T04:04:09;94979.06;;;-1.02;64.43
68179;BME280;54998;42.656;23.382;2023-03-14T04:06:35;94980.16;;;-1.08;64.19
68179;BME280;54998;42.656;23.382;2023-03-14T04:09:00;94971.16;;;-1.13;64.82
68179;BME280;54998;42.656;23.382;2023-03-14T04:11:25;94974.53;;;-1.13;64.87
68179;BME280;54998;42.656;23.382;2023-03-14T04:13:51;94978.72;;;-1.13;64.90
68179;BME280;54998;42.656;23.382;2023-03-14T04:16:19;94970.63;;;-1.20;65.09
68179;BME280;54998;42.656;23.382;2023-03-14T04:18:45;94970.88;;;-1.26;65.58
68179;BME280;54998;42.656;23.382;2023-03-14T04:21:10;94956.31;;;-1.38;65.83
68179;BME280;54998;42.656;23.382;2023-03-14T04:23:36;94953.91;;;-1.41;65.74
68179;BME280;54998;42.656;23.382;2023-03-14T04:26:02;94945.50;;;-1.40;65.95
68179;BME280;54998;42.656;23.382;2023-03-14T04:28:27;94941.75;;;-1.32;65.79
68179;BME280;54998;42.656;23.382;2023-03-14T04:30:52;94947.94;;;-1.20;65.18
68179;BME280;54998;42.656;23.382;2023-03-14T04:33:18;94945.97;;;-1.13;64.65
68179;BME280;54998;42.656;23.382;2023-03-14T04:35:44;94938.91;;;-1.05;64.28
68179;BME280;54998;42.656;23.382;2023-03-14T04:38:10;94938.69;;;-1.00;64.13
68179;BME280;54998;42.656;23.382;2023-03-14T04:40:39;94934.56;;;-1.01;64.55
68179;BME280;54998;42.656;23.382;2023-03-14T04:43:06;94935.16;;;-0.96;64.07
68179;BME280;54998;42.656;23.382;2023-03-14T04:45:31;94921.06;;;-1.00;64.21
68179;BME280;54998;42.656;23.382;2023-03-14T04:47:57;94927.13;;;-1.05;64.51
68179;BME280;54998;42.656;23.382;2023-03-14T04:50:22;94932.78;;;-0.99;64.77
68179;BME280;54998;42.656;23.382;2023-03-14T04:52:48;94928.34;;;-0.94;64.55
68179;BME280;54998;42.656;23.382;2023-03-14T04:55:13;94917.69;;;-0.63;65.01
68179;BME280;54998;42.656;23.382;2023-03-14T04:57:39;94913.72;;;0.20;63.28
68179;BME280;54998;42.656;23.382;2023-03-14T05:00:05;94914.84;;;1.13;60.16
68179;BME280;54998;42.656;23.382;2023-03-14T05:02:31;94914.66;;;1.63;56.91
68179;BME280;54998;42.656;23.382;2023-03-14T05:04:57;94919.16;;;1.89;55.31
68179;BME280;54998;42.656;23.382;2023-03-14T05:07:22;94912.28;;;1.91;54.70
68179;BME280;54998;42.656;23.382;2023-03-14T05:09:48;94920.94;;;1.72;54.96
68179;BME280;54998;42.656;23.382;2023-03-14T05:12:13;94922.06;;;1.67;55.26
68179;BME280;54998;42.656;23.382;2023-03-14T05:14:38;94921.53;;;1.61;55.41
68179;BME280;54998;42.656;23.382;2023-03-14T05:17:04;94914.28;;;2.44;55.13
68179;BME280;54998;42.656;23.382;2023-03-14T05:19:30;94909.25;;;3.96;51.00
68179;BME280;54998;42.656;23.382;2023-03-14T05:21:56;94911.78;;;5.72;45.93
68179;BME280;54998;42.656;23.382;2023-03-14T05:24:21;94911.13;;;7.20;43.08
68179;BME280;54998;42.656;23.382;2023-03-14T05:26:47;94909.41;;;8.17;40.10
68179;BME280;54998;42.656;23.382;2023-03-14T05:29:12;94903.50;;;8.80;36.87
68179;BME280;54998;42.656;23.382;2023-03-14T05:31:38;94900.09;;;8.49;37.27
68179;BME280;54998;42.656;23.382;2023-03-14T05:34:03;94895.03;;;9.20;35.20
68179;BME280;54998;42.656;23.382;2023-03-14T05:36:28;94894.31;;;10.36;33.50
68179;BME280;54998;42.656;23.382;2023-03-14T05:38:54;94892.66;;;12.11;30.67
68179;BME280;54998;42.656;23.382;2023-03-14T05:41:19;94900.22;;;9.49;34.08
68179;BME280;54998;42.656;23.382;2023-03-14T05:43:45;94903.63;;;10.08;32.55
68179;BME280;54998;42.656;23.382;2023-03-14T05:46:10;94911.31;;;9.98;33.31
68179;BME280;54998;42.656;23.382;2023-03-14T05:48:35;94902.53;;;10.50;32.43
68179;BME280;54998;42.656;23.382;2023-03-14T05:51:01;94897.47;;;11.15;31.59
68179;BME280;54998;42.656;23.382;2023-03-14T05:53:27;94890.69;;;10.39;32.79
68179;BME280;54998;42.656;23.382;2023-03-14T05:55:55;94901.72;;;11.97;30.89
68179;BME280;54998;42.656;23.382;2023-03-14T05:58:20;94897.84;;;13.24;28.21
68179;BME280;54998;42.656;23.382;2023-03-14T06:00:46;94899.84;;;14.22;27.25
68179;BME280;54998;42.656;23.382;2023-03-14T06:03:11;94899.19;;;14.20;26.64
68179;BME280;54998;42.656;23.382;2023-03-14T06:05:37;94897.78;;;12.81;28.32
68179;BME280;54998;42.656;23.382;2023-03-14T06:08:03;94897.03;;;13.58;27.58
68179;BME280;54998;42.656;23.382;2023-03-14T06:10:28;94896.50;;;13.11;28.05
68179;BME280;54998;42.656;23.382;2023-03-14T06:12:53;94882.72;;;13.21;27.70
68179;BME280;54998;42.656;23.382;2023-03-14T06:15:19;94897.34;;;15.02;25.21
68179;BME280;54998;42.656;23.382;2023-03-14T06:17:44;94886.63;;;15.13;24.37
68179;BME280;54998;42.656;23.382;2023-03-14T06:20:10;94893.03;;;13.88;25.30
68179;BME280;54998;42.656;23.382;2023-03-14T06:22:36;94895.38;;;13.06;26.87
68179;BME280;54998;42.656;23.382;2023-03-14T06:25:01;94891.88;;;13.66;25.85
68179;BME280;54998;42.656;23.382;2023-03-14T06:27:29;94891.78;;;14.25;25.58
68179;BME280;54998;42.656;23.382;2023-03-14T06:29:54;94892.41;;;14.84;24.80
68179;BME280;54998;42.656;23.382;2023-03-14T06:32:19;94895.34;;;15.20;24.42
68179;BME280;54998;42.656;23.382;2023-03-14T06:34:45;94884.28;;;15.97;23.70
68179;BME280;54998;42.656;23.382;2023-03-14T06:37:11;94889.03;;;14.67;24.96
68179;BME280;54998;42.656;23.382;2023-03-14T06:39:36;94891.28;;;16.20;23.38
68179;BME280;54998;42.656;23.382;2023-03-14T06:42:03;94892.59;;;15.22;23.50
68179;BME280;54998;42.656;23.382;2023-03-14T06:44:29;94890.50;;;14.62;24.62
68179;BME280;54998;42.656;23.382;2023-03-14T06:46:54;94881.03;;;15.02;24.22
68179;BME280;54998;42.656;23.382;2023-03-14T06:49:20;94879.22;;;14.38;24.81
68179;BME280;54998;42.656;23.382;2023-03-14T06:51:45;94873.13;;;15.66;24.16
68179;BME280;54998;42.656;23.382;2023-03-14T06:54:10;94876.19;;;18.80;20.88
68179;BME280;54998;42.656;23.382;2023-03-14T06:56:36;94876.56;;;19.12;19.98
68179;BME280;54998;42.656;23.382;2023-03-14T06:59:01;94871.78;;;16.09;22.39
68179;BME280;54998;42.656;23.382;2023-03-14T07:01:28;94871.78;;;15.15;23.86
68179;BME280;54998;42.656;23.382;2023-03-14T07:03:55;94865.13;;;16.30;22.80
68179;BME280;54998;42.656;23.382;2023-03-14T07:06:20;94866.66;;;17.07;22.42
68179;BME280;54998;42.656;23.382;2023-03-14T07:08:46;94856.81;;;17.68;21.85
68179;BME280;54998;42.656;23.382;2023-03-14T07:11:12;94853.00;;;16.45;22.65
68179;BME280;54998;42.656;23.382;2023-03-14T07:13:38;94850.31;;;16.00;23.79
68179;BME280;54998;42.656;23.382;2023-03-14T07:16:04;94848.06;;;17.18;22.01
68179;BME280;54998;42.656;23.382;2023-03-14T07:18:30;94841.44;;;17.15;21.88
68179;BME280;54998;42.656;23.382;2023-03-14T07:20:55;94845.03;;;17.14;21.34
68179;BME280;54998;42.656;23.382;2023-03-14T07:23:20;94845.78;;;16.40;22.55
68179;BME280;54998;42.656;23.382;2023-03-14T07:25:46;94845.53;;;16.12;22.88
68179;BME280;54998;42.656;23.382;2023-03-14T07:28:11;94848.63;;;17.35;21.71
68179;BME280;54998;42.656;23.382;2023-03-14T07:30:37;94838.88;;;18.38;20.67
68179;BME280;54998;42.656;23.382;2023-03-14T07:33:02;94843.50;;;16.22;22.90
68179;BME280;54998;42.656;23.382;2023-03-14T07:35:27;94834.53;;;16.10;23.30
68179;BME280;54998;42.656;23.382;2023-03-14T07:37:53;94839.16;;;16.00;23.81
68179;BME280;54998;42.656;23.382;2023-03-14T07:40:19;94837.56;;;14.49;25.60
68179;BME280;54998;42.656;23.382;2023-03-14T07:42:44;94827.59;;;17.59;21.94
68179;BME280;54998;42.656;23.382;2023-03-14T07:45:10;94824.88;;;17.68;20.83
68179;BME280;54998;42.656;23.382;2023-03-14T07:47:36;94823.59;;;19.19;20.29
68179;BME280;54998;42.656;23.382;2023-03-14T07:50:03;94818.84;;;18.88;20.00
68179;BME280;54998;42.656;23.382;2023-03-14T07:52:28;94811.81;;;20.58;18.14
68179;BME280;54998;42.656;23.382;2023-03-14T07:54:54;94819.63;;;20.25;19.26
68179;BME280;54998;42.656;23.382;2023-03-14T07:57:19;94817.81;;;20.52;18.46
68179;BME280;54998;42.656;23.382;2023-03-14T07:59:45;94807.53;;;20.84;18.60
68179;BME280;54998;42.656;23.382;2023-03-14T08:02:12;94808.59;;;20.43;18.37
68179;BME280;54998;42.656;23.382;2023-03-14T08:04:39;94814.19;;;18.48;20.93
68179;BME280;54998;42.656;23.382;2023-03-14T08:07:04;94808.09;;;19.53;19.82
68179;BME280;54998;42.656;23.382;2023-03-14T08:09:30;94810.28;;;19.56;19.45
68179;BME280;54998;42.656;23.382;2023-03-14T08:11:55;94813.56;;;17.02;21.89
68179;BME280;54998;42.656;23.382;2023-03-14T08:14:21;94801.47;;;19.50;19.39
68179;BME280;54998;42.656;23.382;2023-03-14T08:16:49;94810.41;;;20.16;19.10
68179;BME280;54998;42.656;23.382;2023-03-14T08:19:14;94814.25;;;19.38;19.32
68179;BME280;54998;42.656;23.382;2023-03-14T08:21:39;94813.13;;;19.67;19.05
68179;BME280;54998;42.656;23.382;2023-03-14T08:24:05;94810.56;;;18.50;19.80
68179;BME280;54998;42.656;23.382;2023-03-14T08:26:31;94815.78;;;15.85;23.35
68179;BME280;54998;42.656;23.382;2023-03-14T08:28:56;94805.69;;;19.58;19.25
68179;BME280;54998;42.656;23.382;2023-03-14T08:31:22;94814.28;;;21.11;17.46
68179;BME280;54998;42.656;23.382;2023-03-14T08:33:47;94797.84;;;22.45;16.36
68179;BME280;54998;42.656;23.382;2023-03-14T08:36:12;94796.50;;;22.35;17.06
68179;BME280;54998;42.656;23.382;2023-03-14T08:38:38;94796.38;;;18.17;19.68
68179;BME280;54998;42.656;23.382;2023-03-14T08:41:04;94798.81;;;21.10;17.35
68179;BME280;54998;42.656;23.382;2023-03-14T08:43:30;94793.19;;;22.47;16.26
68179;BME280;54998;42.656;23.382;2023-03-14T08:46:00;94786.09;;;23.28;15.30
68179;BME280;54998;42.656;23.382;2023-03-14T08:48:26;94769.72;;;23.63;15.01
68179;BME280;54998;42.656;23.382;2023-03-14T08:50:51;94774.94;;;21.58;16.68
68179;BME280;54998;42.656;23.382;2023-03-14T08:53:17;94766.03;;;22.85;15.68
68179;BME280;54998;42.656;23.382;2023-03-14T08:55:43;94758.47;;;23.62;15.18
68179;BME280;54998;42.656;23.382;2023-03-14T08:58:08;94764.25;;;25.41;13.81
68179;BME280;54998;42.656;23.382;2023-03-14T09:00:34;94764.47;;;24.05;14.85
68179;BME280;54998;42.656;23.382;2023-03-14T09:16:17;94732.50;;;21.31;16.48
68179;BME280;54998;42.656;23.382;2023-03-14T09:18:43;94724.22;;;22.66;15.36
68179;BME280;54998;42.656;23.382;2023-03-14T09:21:08;94715.13;;;23.36;15.19
68179;BME280;54998;42.656;23.382;2023-03-14T09:23:34;94723.97;;;24.95;13.80
68179;BME280;54998;42.656;23.382;2023-03-14T09:25:59;94715.53;;;23.03;14.64
68179;BME280;54998;42.656;23.382;2023-03-14T09:28:25;94714.22;;;21.31;16.33
68179;BME280;54998;42.656;23.382;2023-03-14T09:30:51;94707.59;;;20.18;16.98
68179;BME280;54998;42.656;23.382;2023-03-14T09:33:17;94693.16;;;19.69;18.15
68179;BME280;54998;42.656;23.382;2023-03-14T09:35:42;94691.63;;;20.80;17.07
68179;BME280;54998;42.656;23.382;2023-03-14T09:38:08;94694.72;;;21.33;16.83
68179;BME280;54998;42.656;23.382;2023-03-14T09:40:35;94686.19;;;17.77;19.80
68179;BME280;54998;42.656;23.382;2023-03-14T09:43:01;94674.94;;;20.81;17.77
68179;BME280;54998;42.656;23.382;2023-03-14T09:45:29;94674.16;;;20.02;17.70
68179;BME280;54998;42.656;23.382;2023-03-14T09:47:57;94674.44;;;17.81;19.74
68179;BME280;54998;42.656;23.382;2023-03-14T09:50:23;94668.59;;;17.72;20.95
68179;BME280;54998;42.656;23.382;2023-03-14T09:52:52;94661.50;;;19.19;19.10
68179;BME280;54998;42.656;23.382;2023-03-14T09:55:22;94651.69;;;19.07;19.70
68179;BME280;54998;42.656;23.382;2023-03-14T09:57:47;94648.44;;;22.23;17.06
68179;BME280;54998;42.656;23.382;2023-03-14T10:00:16;94643.50;;;21.89;17.47
68179;BME280;54998;42.656;23.382;2023-03-14T10:02:50;94638.44;;;22.68;17.54
68179;BME280;54998;42.656;23.382;2023-03-14T10:05:19;94642.13;;;19.61;19.26
68179;BME280;54998;42.656;23.382;2023-03-14T10:07:45;94635.50;;;19.92;19.49
68179;BME280;54998;42.656;23.382;2023-03-14T10:10:14;94626.66;;;16.97;22.86
68179;BME280;54998;42.656;23.382;2023-03-14T10:12:45;94627.69;;;20.64;19.63
68179;BME280;54998;42.656;23.382;2023-03-14T10:15:13;94624.81;;;21.42;18.43
68179;BME280;54998;42.656;23.382;2023-03-14T10:17:47;94620.09;;;19.57;20.56
68179;BME280;54998;42.656;23.382;2023-03-14T10:20:35;94614.97;;;18.14;21.84
68179;BME280;54998;42.656;23.382;2023-03-14T10:23:24;94609.50;;;18.44;21.72
68179;BME280;54998;42.656;23.382;2023-03-14T10:26:08;94590.78;;;18.68;22.05
68179;BME280;54998;42.656;23.382;2023-03-14T10:28:49;94587.44;;;19.81;20.22
68179;BME280;54998;42.656;23.382;2023-03-14T10:31:16;94578.59;;;20.61;19.95
68179;BME280;54998;42.656;23.382;2023-03-14T10:33:57;94579.13;;;20.18;20.00
68179;BME280;54998;42.656;23.382;2023-03-14T10:36:25;94562.50;;;21.52;19.26
68179;BME280;54998;42.656;23.382;2023-03-14T10:38:58;94557.34;;;21.14;18.90
68179;BME280;54998;42.656;23.382;2023-03-14T10:41:31;94557.72;;;21.49;18.88
68179;BME280;54998;42.656;23.382;2023-03-14T10:43:59;94546.50;;;24.77;15.93
68179;BME280;54998;42.656;23.382;2023-03-14T10:46:27;94533.66;;;25.26;15.61
68179;BME280;54998;42.656;23.382;2023-03-14T10:48:55;94527.44;;;25.15;16.02
68179;BME280;54998;42.656;23.382;2023-03-14T10:51:29;94529.94;;;21.30;18.36
68179;BME280;54998;42.656;23.382;2023-03-14T10:54:03;94516.00;;;21.98;18.21
68179;BME280;54998;42.656;23.382;2023-03-14T10:56:37;94510.66;;;21.93;17.96
68179;BME280;54998;42.656;23.382;2023-03-14T10:59:03;94501.41;;;20.85;18.36
68179;BME280;54998;42.656;23.382;2023-03-14T11:07:27;94485.25;;;19.93;19.88
68179;BME280;54998;42.656;23.382;2023-03-14T11:10:53;94483.25;;;19.09;20.86
68179;BME280;54998;42.656;23.382;2023-03-14T11:27:21;94431.44;;;23.30;16.75
68179;BME280;54998;42.656;23.382;2023-03-14T11:35:35;94376.81;;;24.66;15.86
68179;BME280;54998;42.656;23.382;2023-03-14T11:40:35;94386.88;;;25.69;14.87
68179;BME280;54998;42.656;23.382;2023-03-14T11:43:11;94383.28;;;25.53;14.71
68179;BME280;54998;42.656;23.382;2023-03-14T11:45:40;94380.72;;;23.48;16.50
68179;BME280;54998;42.656;23.382;2023-03-14T11:50:38;94369.91;;;23.97;16.42
68179;BME280;54998;42.656;23.382;2023-03-14T11:53:16;94360.66;;;25.30;15.09
68179;BME280;54998;42.656;23.382;2023-03-14T11:55:44;94358.97;;;23.60;16.04
68179;BME280;54998;42.656;23.382;2023-03-14T11:58:29;94347.84;;;24.94;15.00
68179;BME280;54998;42.656;23.382;2023-03-14T12:00:57;94348.94;;;23.16;16.77
68179;BME280;54998;42.656;23.382;2023-03-14T12:06:16;94344.94;;;22.90;16.46
68179;BME280;54998;42.656;23.382;2023-03-14T12:09:05;94334.47;;;24.11;15.55
68179;BME280;54998;42.656;23.382;2023-03-14T12:11:50;94335.19;;;24.91;15.48
68179;BME280;54998;42.656;23.382;2023-03-14T12:14:33;94320.97;;;25.26;15.03
68179;BME280;54998;42.656;23.382;2023-03-14T12:19:44;94304.84;;;23.65;16.30
68179;BME280;54998;42.656;23.382;2023-03-14T12:22:27;94312.88;;;22.94;16.52
68179;BME280;54998;42.656;23.382;2023-03-14T12:25:15;94307.81;;;21.57;17.38
68179;BME280;54998;42.656;23.382;2023-03-14T12:30:40;94290.72;;;21.24;17.82
68179;BME280;54998;42.656;23.382;2023-03-14T12:38:06;94280.25;;;22.62;16.79
68179;BME280;54998;42.656;23.382;2023-03-14T12:40:47;94277.56;;;22.45;17.14
68179;BME280;54998;42.656;23.382;2023-03-14T12:43:26;94278.53;;;22.20;17.37
68179;BME280;54998;42.656;23.382;2023-03-14T12:51:28;94270.91;;;21.34;17.91
68179;BME280;54998;42.656;23.382;2023-03-14T12:54:13;94266.13;;;20.83;18.09
68179;BME280;54998;42.656;23.382;2023-03-14T12:56:57;94260.06;;;18.86;19.65
68179;BME280;54998;42.656;23.382;2023-03-14T12:59:38;94256.69;;;18.79;20.27
68179;BME280;54998;42.656;23.382;2023-03-14T13:04:33;94239.22;;;18.15;20.70
68179;BME280;54998;42.656;23.382;2023-03-14T13:07:01;94236.63;;;17.95;21.31
68179;BME280;54998;42.656;23.382;2023-03-14T13:11:55;94228.13;;;18.66;19.94
68179;BME280;54998;42.656;23.382;2023-03-14T13:14:22;94215.84;;;18.08;20.43
68179;BME280;54998;42.656;23.382;2023-03-14T13:16:48;94219.81;;;19.02;19.91
68179;BME280;54998;42.656;23.382;2023-03-14T13:19:20;94216.06;;;19.30;19.28
68179;BME280;54998;42.656;23.382;2023-03-14T13:21:47;94214.19;;;18.47;19.77
68179;BME280;54998;42.656;23.382;2023-03-14T13:24:33;94224.59;;;17.34;21.39
68179;BME280;54998;42.656;23.382;2023-03-14T13:26:59;94200.47;;;16.72;21.95
68179;BME280;54998;42.656;23.382;2023-03-14T13:29:28;94190.09;;;16.72;21.85
68179;BME280;54998;42.656;23.382;2023-03-14T13:31:55;94190.66;;;16.60;22.09
68179;BME280;54998;42.656;23.382;2023-03-14T13:34:25;94184.91;;;16.72;22.17
68179;BME280;54998;42.656;23.382;2023-03-14T13:36:54;94181.63;;;16.50;22.35
68179;BME280;54998;42.656;23.382;2023-03-14T13:39:21;94177.03;;;16.45;22.55
68179;BME280;54998;42.656;23.382;2023-03-14T13:41:50;94167.19;;;16.20;22.64
68179;BME280;54998;42.656;23.382;2023-03-14T13:44:25;94163.91;;;16.47;22.38
68179;BME280;54998;42.656;23.382;2023-03-14T13:46:50;94156.13;;;16.40;22.62
68179;BME280;54998;42.656;23.382;2023-03-14T13:49:21;94150.78;;;16.48;22.58
68179;BME280;54998;42.656;23.382;2023-03-14T13:51:48;94158.22;;;16.23;22.39
68179;BME280;54998;42.656;23.382;2023-03-14T13:54:18;94149.13;;;15.99;23.09
68179;BME280;54998;42.656;23.382;2023-03-14T13:56:44;94148.72;;;15.95;22.91
68179;BME280;54998;42.656;23.382;2023-03-14T13:59:32;94136.44;;;15.76;22.96
68179;BME280;54998;42.656;23.382;2023-03-14T14:02:00;94135.25;;;15.78;23.09
68179;BME280;54998;42.656;23.382;2023-03-14T14:04:28;94131.50;;;15.53;23.26
68179;BME280;54998;42.656;23.382;2023-03-14T14:06:58;94112.78;;;15.51;23.28
68179;BME280;54998;42.656;23.382;2023-03-14T14:09:29;94108.09;;;15.39;23.70
68179;BME280;54998;42.656;23.382;2023-03-14T14:11:58;94102.06;;;15.26;23.87